Jard Miramar, Puerto Rico
Current Conditions -  °F | °C
As of 6:50 PM on Monday 24 Nov 2014 (Local Time) from TJBQ Reporting Station
Scattered Clouds Scattered Clouds  
Wind Chill: 77°   Ceiling: Unl
Heat Index: 78°   Visibility: 10mi
Dew Point: 72°   Wind: 10mph
Humidity: 83%   Direction: 100°E
Pressure: 30.03"   Gusts: 17mph
Location:  18.4951°N, 67.0273°W
Report Text: TJBQ 242250Z 10009G15KT 10SM SCT020 25/22 A3003 RMK RWY08 ATIS M
Loading
Personal Weather Stations






























Interactive Weather Map New forecast layout! Learn more

10-Day Weather Forecast

Advertisements
Track Severe Weather on mobile